createdAt,value
2022-09-05T00:00:26.842Z,1
2022-09-05T00:02:27.884Z,1
2022-09-05T00:04:26.920Z,1
2022-09-05T00:06:26.976Z,1
2022-09-05T00:08:33.561Z,1
2022-09-05T00:10:27.107Z,1
2022-09-05T00:12:27.081Z,1
2022-09-05T00:14:34.109Z,1
2022-09-05T00:16:27.519Z,1
2022-09-05T00:22:59.123Z,1
2022-09-05T00:24:23.527Z,1
2022-09-05T00:26:30.540Z,1
2022-09-05T00:28:27.225Z,1
2022-09-05T00:30:35.015Z,1
2022-09-05T00:32:30.391Z,1
2022-09-05T00:34:26.827Z,1
2022-09-05T00:36:28.137Z,1
2022-09-05T00:38:36.784Z,1
2022-09-05T00:40:27.328Z,1
2022-09-05T00:42:30.533Z,1
2022-09-05T00:44:27.118Z,1
2022-09-05T00:46:30.651Z,1
2022-09-05T00:48:26.832Z,1
2022-09-05T00:50:27.114Z,1
2022-09-05T00:52:27.097Z,1
2022-09-05T00:54:32.596Z,1
2022-09-05T00:56:33.778Z,1
2022-09-05T00:58:26.814Z,1
2022-09-05T01:00:27.047Z,1
2022-09-05T01:02:27.005Z,1
2022-09-05T01:04:27.172Z,1
2022-09-05T01:06:28.587Z,1
2022-09-05T01:08:26.861Z,1
2022-09-05T01:10:30.164Z,1
2022-09-05T01:12:26.985Z,1
2022-09-05T01:14:26.756Z,1
2022-09-05T01:18:26.802Z,1
2022-09-05T01:20:35.377Z,1
2022-09-05T01:22:30.472Z,1
2022-09-05T01:24:27.111Z,1
2022-09-05T01:26:26.988Z,1
2022-09-05T01:28:46.196Z,1
2022-09-05T01:30:33.815Z,1
2022-09-05T01:32:30.303Z,1
2022-09-05T01:34:31.712Z,1
2022-09-05T01:36:30.436Z,1
2022-09-05T01:38:26.832Z,1
2022-09-05T01:40:26.754Z,1
2022-09-05T01:42:28.172Z,1
2022-09-05T01:44:26.829Z,1
2022-09-05T01:48:30.089Z,1
2022-09-05T01:50:30.494Z,1
2022-09-05T01:52:27.416Z,1
2022-09-05T01:54:33.695Z,1
2022-09-05T01:56:27.042Z,1
2022-09-05T01:58:29.214Z,1
2022-09-05T02:00:26.823Z,1
2022-09-05T02:02:30.133Z,1
2022-09-05T02:04:26.833Z,1
2022-09-05T02:06:26.792Z,1
2022-09-05T02:08:28.203Z,1
2022-09-05T02:10:26.907Z,1
2022-09-05T02:12:26.856Z,1
2022-09-05T02:14:33.925Z,1
2022-09-05T02:16:33.919Z,1
2022-09-05T02:18:26.911Z,1
2022-09-05T02:20:26.877Z,1
2022-09-05T02:22:26.940Z,1
2022-09-05T02:24:29.547Z,1
2022-09-05T02:26:26.575Z,1
2022-09-05T02:28:27.211Z,1
2022-09-05T02:30:26.899Z,1
2022-09-05T02:32:26.768Z,1
2022-09-05T02:34:27.133Z,1
2022-09-05T02:36:30.014Z,1
2022-09-05T02:40:27.849Z,1
2022-09-05T02:45:04.489Z,1
2022-09-05T02:45:04.869Z,1
2022-09-05T02:45:15.716Z,1
2022-09-05T02:46:30.938Z,1
2022-09-05T02:48:26.737Z,1
2022-09-05T02:51:02.550Z,1
2022-09-05T02:56:01.554Z,1
2022-09-05T02:57:31.139Z,1
2022-09-05T02:57:31.410Z,1
2022-09-05T02:58:26.729Z,1
2022-09-05T03:00:29.603Z,1
2022-09-05T03:02:27.165Z,1
2022-09-05T03:04:30.643Z,1
2022-09-05T03:06:34.762Z,1
2022-09-05T03:08:26.894Z,1
2022-09-05T03:10:36.978Z,1
2022-09-05T03:12:33.274Z,1
2022-09-05T03:14:26.746Z,1
2022-09-05T03:18:26.805Z,1
2022-09-05T03:20:26.838Z,1
2022-09-05T03:22:28.249Z,1
2022-09-05T03:24:26.884Z,1
2022-09-05T03:26:27.059Z,1
2022-09-05T03:28:31.584Z,1
2022-09-05T03:30:26.862Z,1
2022-09-05T03:32:27.338Z,1
2022-09-05T03:34:27.032Z,1
2022-09-05T03:36:30.041Z,1
2022-09-05T03:38:30.679Z,1
2022-09-05T03:40:30.351Z,1
2022-09-05T03:42:30.863Z,1
2022-09-05T03:44:28.545Z,0
2022-09-05T03:46:30.153Z,0
2022-09-05T03:48:28.190Z,0
2022-09-05T03:54:00.649Z,0
2022-09-05T03:55:29.017Z,0
2022-09-05T03:57:09.619Z,0.1
2022-09-05T03:57:21.692Z,0.1
2022-09-05T03:58:36.637Z,0.1
2022-09-05T04:00:30.354Z,0.3
2022-09-05T04:04:20.329Z,0.4
2022-09-05T04:07:38.801Z,0.5
2022-09-05T04:08:13.225Z,0.7
2022-09-05T04:08:36.817Z,1.1
2022-09-05T04:10:26.945Z,1.6
2022-09-05T04:12:30.993Z,2.3
2022-09-05T04:16:30.271Z,5
2022-09-05T04:18:28.506Z,7.4
2022-09-05T04:20:26.925Z,11
2022-09-05T04:22:27.320Z,15.6
2022-09-05T04:24:28.287Z,23.3
2022-09-05T04:26:26.799Z,31.5
2022-09-05T04:28:27.514Z,42.5
2022-09-05T04:30:37.680Z,57.4
2022-09-05T04:32:27.871Z,73.7
2022-09-05T04:34:30.463Z,94.6
2022-09-05T04:36:30.391Z,121.5
2022-09-05T04:38:33.585Z,148.4
2022-09-05T04:40:33.267Z,181.3
2022-09-05T04:42:26.608Z,210.6
2022-09-05T04:44:30.371Z,244.7
2022-09-05T04:46:33.388Z,284.3
2022-09-05T04:50:37.932Z,383.8
2022-09-05T04:52:31.208Z,424.1
2022-09-05T04:54:29.907Z,468.7
2022-09-05T04:56:27.003Z,518
2022-09-05T04:58:35.054Z,572.5
2022-09-05T05:01:29.781Z,601.8
2022-09-05T05:05:58.997Z,665.1
2022-09-05T05:06:07.666Z,735.1
2022-09-05T05:06:42.198Z,772.8
2022-09-05T05:08:36.456Z,812.4
2022-09-05T05:11:04.559Z,897.8
2022-09-05T05:14:49.875Z,943.9
2022-09-05T05:18:04.831Z,1096.6
2022-09-05T05:18:05.403Z,1043.1
2022-09-05T05:18:49.417Z,1152.9
2022-09-05T05:20:41.014Z,1274.1
2022-09-05T05:22:27.364Z,1339.4
2022-09-05T05:24:26.816Z,1408.1
2022-09-05T05:26:26.991Z,1480.3
2022-09-05T05:28:30.164Z,1556.2
2022-09-05T05:30:27.020Z,1636
2022-09-05T05:32:43.526Z,1719.9
2022-09-05T05:34:26.761Z,1808
2022-09-05T05:36:32.877Z,1808
2022-09-05T05:38:26.855Z,1900.7
2022-09-05T05:40:26.957Z,1998.2
2022-09-05T05:42:33.544Z,2100.6
2022-09-05T05:44:30.413Z,2100.6
2022-09-05T05:46:30.032Z,2208.3
2022-09-05T05:48:26.916Z,2321.6
2022-09-05T05:50:26.856Z,2440.6
2022-09-05T05:52:29.698Z,2440.6
2022-09-05T05:54:33.199Z,2565.7
2022-09-05T05:56:27.242Z,2565.7
2022-09-05T05:58:29.330Z,2697.3
2022-09-05T06:00:33.152Z,2835.6
2022-09-05T06:02:26.938Z,2835.6
2022-09-05T06:04:27.298Z,2981
2022-09-05T06:06:27.383Z,2981
2022-09-05T06:09:05.689Z,3133.8
2022-09-05T06:12:45.044Z,3133.8
2022-09-05T06:14:48.019Z,3294.5
2022-09-05T06:14:54.376Z,3294.5
2022-09-05T06:16:28.314Z,3294.5
2022-09-05T06:18:26.794Z,3294.5
2022-09-05T06:22:01.919Z,3463.4
2022-09-05T06:22:27.240Z,4230.2
2022-09-05T06:24:26.745Z,5710.1
2022-09-05T06:26:32.035Z,6002.9
2022-09-05T06:28:27.095Z,6310.7
2022-09-05T06:30:30.085Z,8518.5
2022-09-05T06:32:33.315Z,7707.9
2022-09-05T06:34:33.661Z,7707.9
2022-09-05T06:36:27.207Z,7332
2022-09-05T06:38:30.019Z,6974.4
2022-09-05T06:40:30.297Z,7332
2022-09-05T06:42:43.140Z,10404.6
2022-09-05T06:44:27.134Z,9897.1
2022-09-05T06:46:50.646Z,9897.1
2022-09-05T06:48:33.648Z,11498.8
2022-09-05T06:50:28.109Z,11498.8
2022-09-05T06:52:28.070Z,10938
2022-09-05T06:54:31.451Z,8518.5
2022-09-05T06:56:26.884Z,12088.4
2022-09-05T06:58:30.244Z,13359.7
2022-09-05T07:00:27.226Z,9414.4
2022-09-05T07:04:53.640Z,5710.1
2022-09-05T07:06:48.152Z,5431.7
2022-09-05T07:08:35.515Z,5431.7
2022-09-05T07:10:37.749Z,5166.8
2022-09-05T07:12:28.653Z,5431.7
2022-09-05T07:14:33.871Z,5166.8
2022-09-05T07:16:37.591Z,4914.8
2022-09-05T07:18:27.079Z,5166.8
2022-09-05T07:20:27.176Z,5166.8
2022-09-05T07:22:46.751Z,5166.8
2022-09-05T07:24:39.105Z,4914.8
2022-09-05T07:26:38.009Z,4914.8
2022-09-05T07:28:30.467Z,4914.8
2022-09-05T07:30:30.550Z,4914.8
2022-09-05T07:32:26.925Z,4914.8
2022-09-05T07:34:27.166Z,5166.8
2022-09-05T07:36:28.260Z,5166.8
2022-09-05T07:38:32.592Z,5431.7
2022-09-05T07:40:28.372Z,5431.7
2022-09-05T07:42:27.253Z,5431.7
2022-09-05T07:44:30.792Z,5710.1
2022-09-05T07:46:30.415Z,5710.1
2022-09-05T07:48:34.780Z,6002.9
2022-09-05T07:52:10.732Z,6002.9
2022-09-05T07:56:17.198Z,6002.9
2022-09-05T07:56:57.851Z,6310.7
2022-09-05T07:56:58.387Z,6002.9
2022-09-05T07:58:27.274Z,6310.7
2022-09-05T08:00:30.707Z,6310.7
2022-09-05T08:02:26.949Z,6634.2
2022-09-05T08:04:26.999Z,6634.2
2022-09-05T08:06:50.778Z,6634.2
2022-09-05T08:10:31.266Z,6634.2
2022-09-05T08:14:40.792Z,6974.4
2022-09-05T08:16:27.382Z,6974.4
2022-09-05T08:18:30.303Z,6634.2
2022-09-05T08:20:30.567Z,6310.7
2022-09-05T08:22:27.262Z,6310.7
2022-09-05T08:24:30.732Z,6974.4
2022-09-05T08:26:27.051Z,6634.2
2022-09-05T08:28:37.551Z,6634.2
2022-09-05T08:30:27.826Z,6974.4
2022-09-05T08:32:26.932Z,6974.4
2022-09-05T08:34:44.436Z,6974.4
2022-09-05T08:36:27.153Z,6634.2
2022-09-05T08:38:26.839Z,6974.4
2022-09-05T08:40:26.949Z,6974.4
2022-09-05T08:42:28.283Z,6974.4
2022-09-05T08:45:52.087Z,6974.4
2022-09-05T08:46:45.212Z,7332
2022-09-05T08:50:30.464Z,7332
2022-09-05T08:52:26.895Z,7707.9
2022-09-05T08:54:27.393Z,8103.1
2022-09-05T08:56:31.446Z,8103.1
2022-09-05T08:58:30.183Z,8103.1
2022-09-05T09:00:27.548Z,8103.1
2022-09-05T09:02:45.961Z,8103.1
2022-09-05T09:04:31.223Z,8103.1
2022-09-05T09:06:30.607Z,7332
2022-09-05T09:08:26.968Z,6974.4
2022-09-05T09:10:27.029Z,7707.9
2022-09-05T09:12:30.530Z,8103.1
2022-09-05T09:14:29.555Z,7707.9
2022-09-05T09:16:27.347Z,7707.9
2022-09-05T09:18:27.131Z,7707.9
2022-09-05T09:20:33.941Z,7332
2022-09-05T09:22:30.421Z,7332
2022-09-05T09:24:27.275Z,6974.4
2022-09-05T09:26:28.085Z,7332
2022-09-05T09:28:49.309Z,7332
2022-09-05T09:30:27.139Z,7332
2022-09-05T09:32:27.064Z,6974.4
2022-09-05T09:34:31.551Z,6974.4
2022-09-05T09:36:30.512Z,6974.4
2022-09-05T09:38:27.122Z,6634.2
2022-09-05T09:40:27.209Z,6634.2
2022-09-05T09:42:32.933Z,6634.2
2022-09-05T09:44:26.960Z,6634.2
2022-09-05T09:46:30.804Z,6310.7
2022-09-05T09:48:27.009Z,6634.2
2022-09-05T09:50:33.829Z,6634.2
2022-09-05T09:52:27.124Z,6634.2
2022-09-05T09:54:26.867Z,6634.2
2022-09-05T09:56:27.305Z,6634.2
2022-09-05T09:58:29.596Z,6310.7
2022-09-05T10:00:30.305Z,6310.7
2022-09-05T10:03:47.064Z,6310.7
2022-09-05T10:10:37.490Z,6310.7
2022-09-05T10:10:40.810Z,6310.7
2022-09-05T10:10:41.371Z,6310.7
2022-09-05T10:12:33.677Z,6634.2
2022-09-05T10:14:47.983Z,6310.7
2022-09-05T10:16:27.260Z,6634.2
2022-09-05T10:18:26.956Z,6634.2
2022-09-05T10:20:29.390Z,6634.2
2022-09-05T10:22:36.462Z,6634.2
2022-09-05T10:24:27.513Z,6634.2
2022-09-05T10:26:27.626Z,6634.2
2022-09-05T10:28:27.129Z,6634.2
2022-09-05T10:30:31.966Z,6634.2
2022-09-05T10:33:54.132Z,6634.2
2022-09-05T10:35:05.434Z,6634.2
2022-09-05T10:36:27.654Z,6634.2
2022-09-05T10:38:27.980Z,6634.2
2022-09-05T10:40:30.342Z,6634.2
2022-09-05T10:42:30.565Z,6634.2
2022-09-05T10:44:30.174Z,6634.2
2022-09-05T10:46:50.021Z,6634.2
2022-09-05T10:48:27.046Z,6634.2
2022-09-05T10:50:30.376Z,6634.2
2022-09-05T10:52:33.754Z,6634.2
2022-09-05T10:54:27.272Z,6634.2
2022-09-05T10:56:28.483Z,6634.2
2022-09-05T10:58:35.266Z,6634.2
2022-09-05T11:02:08.147Z,6634.2
2022-09-05T11:02:33.403Z,6634.2
2022-09-05T11:04:37.136Z,6634.2
2022-09-05T11:06:30.225Z,6634.2
2022-09-05T11:08:27.114Z,6634.2
2022-09-05T11:10:34.814Z,6634.2
2022-09-05T11:12:27.038Z,6634.2
2022-09-05T11:14:27.334Z,6634.2
2022-09-05T11:16:33.934Z,6634.2
2022-09-05T11:18:27.099Z,6634.2
2022-09-05T11:20:35.185Z,6634.2
2022-09-05T11:22:27.138Z,6634.2
2022-09-05T11:24:30.574Z,6634.2
2022-09-05T11:26:33.913Z,6634.2
2022-09-05T11:30:28.488Z,6634.2
2022-09-05T11:34:22.711Z,6634.2
2022-09-05T11:37:38.490Z,6634.2
2022-09-05T11:39:49.915Z,6634.2
2022-09-05T11:40:01.231Z,6974.4
2022-09-05T11:40:41.777Z,6974.4
2022-09-05T11:42:27.231Z,6974.4
2022-09-05T11:44:27.353Z,6634.2
2022-09-05T11:46:33.903Z,6974.4
2022-09-05T11:48:33.599Z,6974.4
2022-09-05T11:50:27.277Z,6974.4
2022-09-05T11:52:27.121Z,6974.4
2022-09-05T11:54:32.388Z,6974.4
2022-09-05T11:56:30.646Z,6634.2
2022-09-05T11:58:44.472Z,6634.2
2022-09-05T12:00:34.102Z,6634.2
2022-09-05T12:04:31.413Z,6634.2
2022-09-05T12:06:26.986Z,6634.2
2022-09-05T12:08:30.533Z,6634.2
2022-09-05T12:10:43.676Z,6634.2
2022-09-05T12:12:38.755Z,6634.2
2022-09-05T12:14:27.630Z,6974.4
2022-09-05T12:16:30.643Z,6974.4
2022-09-05T12:18:30.269Z,6974.4
2022-09-05T12:20:26.922Z,6634.2
2022-09-05T12:22:27.395Z,6634.2
2022-09-05T12:25:16.196Z,6634.2
2022-09-05T12:26:43.175Z,6634.2
2022-09-05T12:28:31.441Z,6634.2
2022-09-05T12:30:34.239Z,6634.2
2022-09-05T12:32:55.314Z,6634.2
2022-09-05T12:36:03.092Z,6634.2
2022-09-05T12:38:45.009Z,6634.2
2022-09-05T12:40:25.523Z,6634.2
2022-09-05T12:40:58.593Z,6974.4
2022-09-05T12:42:37.200Z,7332
2022-09-05T12:44:40.676Z,6974.4
2022-09-05T12:46:28.367Z,6974.4
2022-09-05T12:48:38.810Z,6634.2
2022-09-05T12:50:30.439Z,6974.4
2022-09-05T12:52:27.191Z,6974.4
2022-09-05T12:54:33.052Z,6974.4
2022-09-05T12:57:31.867Z,6974.4
2022-09-05T13:01:42.040Z,6974.4
2022-09-05T13:02:59.722Z,7332
2022-09-05T13:03:00.622Z,7707.9
2022-09-05T13:04:31.868Z,8518.5
2022-09-05T13:06:26.837Z,8103.1
2022-09-05T13:08:30.415Z,8103.1
2022-09-05T13:11:26.820Z,8103.1
2022-09-05T13:14:51.277Z,7707.9
2022-09-05T13:14:51.843Z,7707.9
2022-09-05T13:16:25.121Z,8103.1
2022-09-05T13:18:30.403Z,8103.1
2022-09-05T13:20:26.934Z,7707.9
2022-09-05T13:22:28.345Z,7707.9
2022-09-05T13:24:27.207Z,7707.9
2022-09-05T13:26:26.786Z,8103.1
2022-09-05T13:28:30.667Z,8103.1
2022-09-05T13:31:42.051Z,5710.1
2022-09-05T13:37:56.996Z,8518.5
2022-09-05T13:37:57.531Z,8518.5
2022-09-05T13:37:57.850Z,8518.5
2022-09-05T13:38:38.132Z,8103.1
2022-09-05T13:40:27.267Z,8103.1
2022-09-05T13:42:27.015Z,7332
2022-09-05T13:44:28.417Z,7332
2022-09-05T13:46:27.623Z,6974.4
2022-09-05T13:49:23.320Z,6974.4
2022-09-05T13:50:30.694Z,6634.2
2022-09-05T13:52:27.301Z,6634.2
2022-09-05T13:54:28.295Z,6634.2
2022-09-05T13:56:33.885Z,6974.4
2022-09-05T13:58:33.803Z,6634.2
2022-09-05T14:00:28.685Z,6310.7
2022-09-05T14:02:27.715Z,5166.8
2022-09-05T14:06:46.870Z,7707.9
2022-09-05T14:08:26.946Z,7707.9
2022-09-05T14:10:29.940Z,7332
2022-09-05T14:12:30.595Z,7332
2022-09-05T14:16:34.134Z,6634.2
2022-09-05T14:18:30.342Z,6634.2
2022-09-05T14:22:27.304Z,6310.7
2022-09-05T14:24:28.236Z,6310.7
2022-09-05T14:26:31.236Z,6002.9
2022-09-05T14:28:27.180Z,5710.1
2022-09-05T14:30:55.445Z,6002.9
2022-09-05T14:35:18.461Z,6002.9
2022-09-05T14:37:38.136Z,6002.9
2022-09-05T14:37:47.211Z,5710.1
2022-09-05T14:38:27.497Z,6002.9
2022-09-05T14:40:30.112Z,6002.9
2022-09-05T14:42:27.354Z,6002.9
2022-09-05T14:44:30.612Z,6002.9
2022-09-05T14:48:27.199Z,6002.9
2022-09-05T14:50:27.205Z,6002.9
2022-09-05T14:57:23.439Z,6974.4
2022-09-05T15:02:39.998Z,7332
2022-09-05T15:02:46.878Z,7707.9
2022-09-05T15:02:47.051Z,7707.9
2022-09-05T15:06:32.870Z,6310.7
2022-09-05T15:08:31.887Z,5710.1
2022-09-05T15:12:02.085Z,7332
2022-09-05T15:12:34.333Z,5431.7
2022-09-05T15:14:27.177Z,5431.7
2022-09-05T15:16:34.314Z,5710.1
2022-09-05T15:18:30.793Z,4914.8
2022-09-05T15:20:26.979Z,4447.1
2022-09-05T15:22:31.291Z,4447.1
2022-09-05T15:24:27.166Z,5431.7
2022-09-05T15:26:27.178Z,4447.1
2022-09-05T15:28:28.122Z,4230.2
2022-09-05T15:30:34.931Z,4914.8
2022-09-05T15:32:27.483Z,4447.1
2022-09-05T15:34:27.350Z,5710.1
2022-09-05T15:36:37.433Z,5710.1
2022-09-05T15:38:27.385Z,4914.8
2022-09-05T15:40:30.743Z,4675.1
2022-09-05T15:42:30.662Z,6002.9
2022-09-05T15:44:27.100Z,3641
2022-09-05T15:46:35.647Z,3641
2022-09-05T15:48:33.849Z,3463.4
2022-09-05T15:50:26.971Z,3463.4
2022-09-05T15:52:29.831Z,3463.4
2022-09-05T15:54:38.216Z,3294.5
2022-09-05T15:56:24.498Z,3294.5
2022-09-05T15:58:27.245Z,4230.2
2022-09-05T16:00:27.021Z,3827.6
2022-09-05T16:02:30.619Z,2835.6
2022-09-05T16:06:00.808Z,2697.3
2022-09-05T16:10:01.480Z,3827.6
2022-09-05T16:10:32.230Z,3463.4
2022-09-05T16:12:27.629Z,2321.6
2022-09-05T16:14:27.209Z,3463.4
2022-09-05T16:18:22.038Z,3463.4
2022-09-05T16:21:08.547Z,3827.6
2022-09-05T16:23:22.069Z,2697.3
2022-09-05T16:23:23.234Z,3827.6
2022-09-05T16:24:34.992Z,2321.6
2022-09-05T16:26:27.366Z,2321.6
2022-09-05T16:28:27.115Z,1998.2
2022-09-05T16:30:28.395Z,2440.6
2022-09-05T16:32:33.865Z,1998.2
2022-09-05T16:34:27.126Z,1719.9
2022-09-05T16:36:27.135Z,1636
2022-09-05T16:38:48.692Z,1636
2022-09-05T16:40:27.190Z,1556.2
2022-09-05T16:42:46.371Z,1480.3
2022-09-05T16:44:27.167Z,1408.1
2022-09-05T16:46:31.622Z,1408.1
2022-09-05T16:48:27.157Z,1408.1
2022-09-05T16:50:33.623Z,1408.1
2022-09-05T16:52:31.605Z,1408.1
2022-09-05T16:54:27.295Z,1339.4
2022-09-05T16:56:27.301Z,1274.1
2022-09-05T16:58:27.211Z,1212
2022-09-05T17:00:27.116Z,1212
2022-09-05T17:02:27.129Z,1212
2022-09-05T17:04:27.140Z,1096.6
2022-09-05T17:06:27.337Z,1096.6
2022-09-05T17:08:27.009Z,992.3
2022-09-05T17:10:35.967Z,943.9
2022-09-05T17:12:30.259Z,854.1
2022-09-05T17:14:27.107Z,812.4
2022-09-05T17:16:30.403Z,735.1
2022-09-05T17:18:31.955Z,772.8
2022-09-05T17:20:27.003Z,735.1
2022-09-05T17:23:50.355Z,665.1
2022-09-05T17:26:35.260Z,601.8
2022-09-05T17:31:10.670Z,424.1
2022-09-05T17:41:12.661Z,221.4
2022-09-05T17:43:09.882Z,190.6
2022-09-05T17:45:13.237Z,164
2022-09-05T17:47:09.863Z,141.2
2022-09-05T17:51:09.913Z,94.6
2022-09-05T17:53:24.845Z,70.1
2022-09-05T17:55:12.957Z,51.9
2022-09-05T17:57:10.334Z,36.6
2022-09-05T17:59:13.403Z,24.5
2022-09-05T18:01:16.209Z,17.3
2022-09-05T18:03:10.034Z,12.2
2022-09-05T18:05:09.950Z,8.6
2022-09-05T18:07:09.843Z,6
2022-09-05T18:09:09.869Z,4.1
2022-09-05T18:11:14.043Z,2.9
2022-09-05T18:13:12.248Z,2
2022-09-05T18:15:09.901Z,1.4
2022-09-05T18:21:12.631Z,0.5
2022-09-05T18:23:19.451Z,0.4
2022-09-05T18:25:14.016Z,0.3
2022-09-05T18:27:11.401Z,0.2
2022-09-05T18:29:14.362Z,0.2
2022-09-05T18:31:10.476Z,0.2
2022-09-05T18:33:30.633Z,0.1
2022-09-05T18:35:09.927Z,0.1
2022-09-05T18:37:09.816Z,0.1
2022-09-05T18:39:13.422Z,0.1
2022-09-05T18:41:10.113Z,0
2022-09-05T18:43:11.379Z,0
2022-09-05T18:45:16.459Z,0
2022-09-05T18:47:12.375Z,0
2022-09-05T18:49:58.890Z,0
2022-09-05T18:51:12.977Z,0
2022-09-05T18:53:12.911Z,0
2022-09-05T18:55:56.474Z,0
2022-09-05T18:57:27.103Z,0
2022-09-05T18:59:16.573Z,1
2022-09-05T19:01:13.239Z,1
2022-09-05T19:03:10.025Z,0
2022-09-05T19:05:09.993Z,0
2022-09-05T19:07:21.522Z,0
2022-09-05T19:09:09.783Z,0
2022-09-05T19:11:25.385Z,0
2022-09-05T19:13:09.864Z,0
2022-09-05T19:15:09.824Z,0
2022-09-05T19:17:09.982Z,0
2022-09-05T19:19:16.242Z,0
2022-09-05T19:21:11.746Z,0
2022-09-05T19:23:13.693Z,0
2022-09-05T19:25:09.915Z,0
2022-09-05T19:28:09.718Z,0
2022-09-05T19:32:51.564Z,0
2022-09-05T19:37:01.236Z,0
2022-09-05T19:37:01.788Z,0
2022-09-05T19:37:22.155Z,0
2022-09-05T19:40:23.956Z,0
2022-09-05T19:43:15.691Z,0
2022-09-05T19:47:32.556Z,0
2022-09-05T19:47:32.649Z,0
2022-09-05T19:47:55.046Z,0
2022-09-05T19:49:10.118Z,0
2022-09-05T19:51:16.635Z,0
2022-09-05T19:55:09.701Z,1
2022-09-05T19:57:16.685Z,1
2022-09-05T19:59:13.316Z,1
2022-09-05T20:01:16.618Z,1
2022-09-05T20:03:09.876Z,1
2022-09-05T20:05:13.230Z,1
2022-09-05T20:07:10.037Z,1
2022-09-05T20:09:10.447Z,1
2022-09-05T20:11:09.661Z,1
2022-09-05T20:13:11.426Z,0
2022-09-05T20:15:09.960Z,1
2022-09-05T20:17:16.030Z,1
2022-09-05T20:19:09.903Z,1
2022-09-05T20:21:09.922Z,1
2022-09-05T20:23:09.805Z,1
2022-09-05T20:25:19.688Z,1
2022-09-05T20:27:09.953Z,1
2022-09-05T20:29:11.439Z,1
2022-09-05T20:31:10.075Z,1
2022-09-05T20:33:09.557Z,1
2022-09-05T20:36:31.341Z,1
2022-09-05T20:41:11.644Z,1
2022-09-05T20:43:12.792Z,1
2022-09-05T20:43:13.135Z,1
2022-09-05T20:43:34.281Z,1
2022-09-05T20:45:10.256Z,1
2022-09-05T20:48:26.705Z,1
2022-09-05T20:52:13.891Z,1
2022-09-05T20:54:11.953Z,1
2022-09-05T20:54:11.977Z,1
2022-09-05T20:55:16.019Z,1
2022-09-05T20:57:11.469Z,1
2022-09-05T20:59:09.885Z,1
2022-09-05T21:01:15.635Z,1
2022-09-05T21:03:11.648Z,1
2022-09-05T21:05:20.539Z,1
2022-09-05T21:07:10.281Z,1
2022-09-05T21:09:24.800Z,1
2022-09-05T21:11:16.723Z,1
2022-09-05T21:13:10.072Z,1
2022-09-05T21:15:24.283Z,1
2022-09-05T21:17:15.258Z,1
2022-09-05T21:19:10.096Z,1
2022-09-05T21:21:14.665Z,1
2022-09-05T21:23:15.889Z,1
2022-09-05T21:25:13.742Z,1
2022-09-05T21:27:09.685Z,1
2022-09-05T21:29:10.118Z,1
2022-09-05T21:31:15.997Z,1
2022-09-05T21:33:14.544Z,1
2022-09-05T21:35:33.959Z,1
2022-09-05T21:37:13.103Z,1
2022-09-05T21:39:09.867Z,1
2022-09-05T21:41:16.496Z,1
2022-09-05T21:45:35.393Z,1
2022-09-05T21:47:36.137Z,1
2022-09-05T21:47:45.574Z,1
2022-09-05T21:49:09.982Z,1
2022-09-05T21:51:10.308Z,1
2022-09-05T21:54:01.692Z,1
2022-09-05T21:59:05.433Z,1
2022-09-05T21:59:15.897Z,1
2022-09-05T21:59:23.504Z,1
2022-09-05T22:01:09.913Z,1
2022-09-05T22:03:12.010Z,1
2022-09-05T22:05:14.464Z,1
2022-09-05T22:07:09.833Z,1
2022-09-05T22:09:13.432Z,1
2022-09-05T22:11:10.512Z,1
2022-09-05T22:13:14.675Z,1
2022-09-05T22:15:27.001Z,1
2022-09-05T22:17:09.954Z,1
2022-09-05T22:19:16.099Z,1
2022-09-05T22:21:32.305Z,1
2022-09-05T22:23:10.103Z,1
2022-09-05T22:25:11.324Z,1
2022-09-05T22:27:12.061Z,1
2022-09-05T22:29:10.129Z,1
2022-09-05T22:31:09.967Z,1
2022-09-05T22:33:11.525Z,1
2022-09-05T22:35:16.078Z,1
2022-09-05T22:37:13.253Z,1
2022-09-05T22:39:10.035Z,1
2022-09-05T22:41:18.850Z,1
2022-09-05T22:43:10.237Z,1
2022-09-05T22:45:10.434Z,1
2022-09-05T22:47:09.729Z,1
2022-09-05T22:49:09.871Z,1
2022-09-05T22:51:16.760Z,1
2022-09-05T22:53:09.928Z,1
2022-09-05T22:55:09.966Z,1
2022-09-05T22:57:14.268Z,1
2022-09-05T22:59:13.136Z,1
2022-09-05T23:01:10.582Z,1
2022-09-05T23:03:09.732Z,1
2022-09-05T23:05:13.320Z,1
2022-09-05T23:07:10.023Z,1
2022-09-05T23:09:10.003Z,1
2022-09-05T23:11:09.848Z,1
2022-09-05T23:13:10.072Z,1
2022-09-05T23:15:13.249Z,1
2022-09-05T23:17:09.940Z,1
2022-09-05T23:19:09.845Z,1
2022-09-05T23:21:10.033Z,1
2022-09-05T23:23:13.271Z,1
2022-09-05T23:25:10.120Z,1
2022-09-05T23:27:09.827Z,1
2022-09-05T23:29:22.492Z,1
2022-09-05T23:31:10.035Z,1
2022-09-05T23:33:10.380Z,1
2022-09-05T23:35:16.306Z,1
2022-09-05T23:37:10.480Z,1
2022-09-05T23:39:10.634Z,1
2022-09-05T23:41:10.012Z,1
2022-09-05T23:43:09.873Z,1
2022-09-05T23:45:14.244Z,1
2022-09-05T23:47:10.573Z,1
2022-09-05T23:49:14.194Z,1
2022-09-05T23:51:10.029Z,1
2022-09-05T23:53:16.617Z,1
2022-09-05T23:55:09.901Z,1
2022-09-05T23:57:16.664Z,1
2022-09-05T23:59:10.227Z,1
